• Join FlightAware (Why Join?)
  • Login
  • US Flag 
08:28AM EDT


 

Airport Tracker/Info


-or-


 

Live Flight TrackerFlight Track Log ✈ UAL4274 ✈ 11-Apr-2013 ✈ KIAH - KRSW

Flight Track Log - Related Links

Times and Time Zones

All times are in EDT time to prevent confusion due to time zone crossing. See the UAL4274 flight status page for this flight to view local times or setup timezone preferences in your user account.

Time Position Orientation Groundspeed Altitude Reporting Facility
EDT Latitude Longitude Course Direction KTS MPH feet Rate Location/Type
02:49PM 29.9781 -95.2933 127° Southeast 172 198 600  Level Houston Center
02:50PM 29.9633 -95.2711 127° Southeast 193 222 1,400 1,200 Climbing Houston Center
02:51PM 29.9328 -95.2436 142° Southeast 228 262 2,200 1,740 Climbing Houston Center
02:51PM 29.9064 -95.2225 145° Southeast 254 292 3,200 2,520 Climbing Houston Center
02:52PM 29.8608 -95.1822 143° Southeast 251 289 4,900 2,160 Climbing Houston Center
02:53PM 29.7917 -95.1267 145° Southeast 294 338 7,200 2,400 Climbing Houston Center
02:54PM 29.7158 -95.0806 152° Southeast 305 351 9,900 2,100 Climbing Houston Center
02:55PM 29.6342 -95.0417 158° South 308 354 11,600 1,500 Climbing Houston Center
02:56PM 29.5425 -94.9986 158° South 348 400 13,000 1,380 Climbing Houston Center
02:57PM 29.4500 -94.9536 157° South 357 411 14,500 1,380 Climbing Houston Center
02:58PM 29.3539 -94.9075 157° South 370 426 15,900 1,500 Climbing Houston Center
02:59PM 29.2617 -94.8481 151° Southeast 384 442 17,600 1,740 Climbing Houston Center
03:00PM 29.1911 -94.7222 123° Southeast 394 453 19,600 1,680 Climbing Houston Center
03:01PM 29.1358 -94.6164 121° Southeast 390 449 21,200 1,560 Climbing Houston Center
03:02PM 29.0797 -94.5106 121° Southeast 390 449 22,900 1,920 Climbing Houston Center
03:03PM 29.0281 -94.4103 120° Southeast 370 426 25,200 1,500 Climbing Houston Center
03:04PM 28.9967 -94.2967 108° East 400 460 26,100 1,200 Climbing Houston Center
03:05PM 28.9983 -94.1386 89° East 416 479 27,800 1,200 Climbing Houston Center
03:06PM 28.9983 -94.0053 90° East 421 484 28,700 540 Climbing Houston Center
03:07PM 28.9986 -93.8669 90° East 432 497 29,000 60 Climbing Houston Center
03:08PM 28.9989 -93.7308 90° East 453 521 28,900 -60 Descending Houston Center
03:09PM 29.0003 -93.5417 89° East 492 566 28,900 300 Level Houston Center
03:10PM 29.0003 -93.3811 90° East 505 581 29,600 720 Climbing Houston Center
03:11PM 28.9997 -93.2233 90° East 502 578 30,500 900 Climbing Houston Center
03:12PM 29.0006 -93.0675 90° East 495 570 31,500 960 Climbing Houston Center
03:13PM 29.0000 -92.9106 90° East 494 568 32,500 960 Climbing Houston Center
03:15PM 29.0008 -92.7250 90° East 492 566 33,600 960 Climbing Houston Center
03:16PM 29.0003 -92.5739 90° East 482 555 34,600 660 Climbing Houston Center
03:17PM 28.9994 -92.4231 90° East 478 550 35,000 180 Climbing Houston Center
03:18PM 28.9981 -92.2692 91° East 484 557 35,000  Level Houston Center
03:19PM 28.9972 -92.1083 109° East 497 572 35,000  Level Houston Center
03:20PM 28.9961 -91.9128 90° East 510 587 35,000  Level Houston Center
03:21PM 28.9958 -91.7497 90° East 516 594 35,000  Level Houston Center
03:22PM 29.0131 -91.5908 83° East 528 608 35,000  Level Houston Center
03:23PM 29.0322 -91.4217 83° East 537 618 35,000  Level Houston Center
03:24PM 29.0558 -91.2194 82° East 537 618 35,000  Level Houston Center
03:25PM 29.0747 -91.0492 83° East 540 621 35,000 -60 Level Houston Center
03:26PM 29.1275 -90.8853 70° East 551 634 34,900 -60 Descending Houston Center
03:27PM 29.1853 -90.7225 68° East 555 639 34,900  Level Houston Center
03:28PM 29.2314 -90.5581 72° East 549 632 34,900  Level Houston Center
03:29PM 29.2144 -90.3600 96° East 519 597 35,000  Climbing Houston Center
03:30PM 29.1931 -90.2006 99° East 514 592 35,000 600 Level Houston Center
03:31PM 29.2364 -90.0436 72° East 519 597 36,300 960 Climbing Houston Center
03:32PM 29.3328 -89.9322 45° Northeast 494 568 37,000 300 Climbing Houston Center
03:33PM 29.4333 -89.8197 44° Northeast 500 575 37,000  Level Houston Center
03:34PM 29.5047 -89.6467 65° Northeast 511 588 37,000 -60 Level Houston Center
03:35PM 29.5075 -89.4847 89° East 512 589 36,900 -60 Descending Houston Center
03:36PM 29.5042 -89.3231 91° East 510 587 36,900  Level Houston Center
03:37PM 29.5175 -89.1608 85° East 529 609 36,900  Level Houston Center
03:38PM 29.5656 -89.0089 70° East 515 593 37,000  Climbing Houston Center
03:39PM 29.6547 -88.8428 58° Northeast 514 592 37,000  Level Houston Center
03:40PM 29.7331 -88.7022 57° Northeast 524 603 37,000  Level Houston Center
03:41PM 29.8111 -88.5597 58° Northeast 528 608 37,000  Level Houston Center
03:42PM 29.8897 -88.4181 57° Northeast 528 608 37,000  Level Houston Center
03:44PM 29.9731 -88.2656 58° Northeast 532 612 37,000  Level Houston Center
03:45PM 30.0528 -88.1192 58° Northeast 538 619 37,000  Level Houston Center
03:46PM 30.1319 -87.9756 57° Northeast 536 617 37,000  Level Houston Center
03:46PM 30.1636 -87.9108 60° Northeast 523 602 37,000  Level Jacksonville Center
03:47PM 30.2444 -87.7636 58° Northeast 523 602 37,000  Level Jacksonville Center
03:48PM 30.3231 -87.6161 58° Northeast 523 602 37,000  Level Jacksonville Center
03:49PM 30.4036 -87.4683 58° Northeast 523 602 37,000  Level Jacksonville Center
03:50PM 30.4778 -87.3153 61° Northeast 528 608 37,000  Level Jacksonville Center
03:51PM 30.4983 -87.1425 82° East 528 608 37,000  Level Jacksonville Center
03:52PM 30.5125 -86.9650 85° East 533 613 37,000  Level Jacksonville Center
03:53PM 30.5239 -86.8014 85° East 533 613 37,000  Level Jacksonville Center
03:54PM 30.5392 -86.6356 84° East 527 606 37,000  Level Jacksonville Center
03:55PM 30.5503 -86.4672 86° East 521 600 37,000 -60 Level Jacksonville Center
03:56PM 30.5444 -86.3006 92° East 512 589 36,900  Descending Jacksonville Center
03:57PM 30.4983 -86.1494 109° East 503 579 37,000  Climbing Jacksonville Center
03:58PM 30.4519 -85.9986 110° East 498 573 37,000  Level Jacksonville Center
03:59PM 30.4078 -85.8406 108° East 504 580 37,000  Level Jacksonville Center
04:00PM 30.3611 -85.6875 109° East 510 587 37,000  Level Jacksonville Center
04:01PM 30.3164 -85.5347 109° East 505 581 37,000  Level Jacksonville Center
04:02PM 30.2714 -85.3819 109° East 505 581 37,000  Level Jacksonville Center
04:03PM 30.2264 -85.2317 109° East 505 581 37,000  Level Jacksonville Center
04:04PM 30.1811 -85.0744 108° East 505 581 37,000  Level Jacksonville Center
04:05PM 30.1356 -84.9244 109° East 505 581 37,000  Level Jacksonville Center
04:06PM 30.0878 -84.7697 110° East 505 581 37,000  Level Jacksonville Center
04:07PM 30.0400 -84.6131 109° East 511 588 37,000  Level Jacksonville Center
04:08PM 29.9919 -84.4539 109° East 511 588 37,000  Level Jacksonville Center
04:09PM 29.9456 -84.2972 109° East 511 588 37,000  Level Jacksonville Center
04:10PM 29.8931 -84.1264 109° East 511 588 37,000  Level Jacksonville Center
04:11PM 29.8444 -83.9700 110° East 511 588 37,000  Level Jacksonville Center
04:12PM 29.7533 -83.8542 132° Southeast 498 573 37,000  Level Jacksonville Center
04:13PM 29.6414 -83.7814 151° Southeast 466 536 37,000 -240 Level Jacksonville Center
04:14PM 29.5228 -83.7064 151° Southeast 466 536 36,600 -660 Descending Jacksonville Center
04:15PM 29.4106 -83.6339 151° Southeast 471 542 35,700 -840 Descending Jacksonville Center
04:16PM 29.2939 -83.5592 151° Southeast 471 542 35,000 -360 Descending Jacksonville Center
04:17PM 29.1794 -83.4872 151° Southeast 471 542 35,000 -300 Level Jacksonville Center
04:18PM 29.0692 -83.4175 151° Southeast 471 542 34,400 -780 Descending Jacksonville Center
04:19PM 28.9567 -83.3458 151° Southeast 466 536 33,500 -900 Descending Jacksonville Center
04:20PM 28.8464 -83.3003 160° South 466 536 32,600 -960 Descending Jacksonville Center
04:21PM 28.7211 -83.2547 162° South 466 536 31,600 -1,020 Descending Jacksonville Center
04:22PM 28.6003 -83.2117 163° South 466 536 30,600 -960 Descending Jacksonville Center
04:23PM 28.4772 -83.1664 162° South 461 531 29,700 -960 Descending Jacksonville Center
04:24PM 28.3397 -83.1189 163° South 461 531 28,700 -960 Descending Jacksonville Center
04:24PM 28.2942 -83.1036 164° South 460 529 28,300 -900 Descending Miami Center
04:25PM 28.1711 -83.0567 161° South 475 547 27,400 -660 Descending Miami Center
04:26PM 28.0500 -83.0100 161° South 470 541 27,000 -240 Descending Miami Center
04:27PM 27.9314 -82.9544 158° South 470 541 27,000  Level Miami Center
04:28PM 27.8106 -82.9008 159° South 470 541 27,000 -240 Level Miami Center
04:29PM 27.6797 -82.8378 157° South 465 535 26,600 -720 Descending Miami Center
04:30PM 27.5628 -82.7872 159° South 465 535 25,600 -1,320 Descending Miami Center
04:31PM 27.4603 -82.7422 159° South 457 526 24,000 -1,620 Descending Miami Center
04:32PM 27.3497 -82.6922 158° South 428 493 22,400 -1,680 Descending Miami Center
04:33PM 27.2414 -82.6400 157° South 428 493 20,700 -1,800 Descending Miami Center
04:34PM 27.1403 -82.5581 144° Southeast 416 479 18,800 -1,860 Descending Miami Center
04:35PM 27.0572 -82.4933 145° Southeast 410 472 17,000 -1,920 Descending Miami Center
04:36PM 26.9700 -82.4239 145° Southeast 399 459 15,000 -2,040 Descending Miami Center
04:37PM 26.8869 -82.3594 145° Southeast 389 448 13,000 -1,980 Descending Miami Center
04:38PM 26.8061 -82.2928 144° Southeast 377 434 11,100 -1,200 Descending Miami Center
04:39PM 26.7369 -82.2408 146° Southeast 340 391 10,600 -1,260 Descending Miami Center
04:40PM 26.6761 -82.1914 144° Southeast 298 343 8,600 -2,100 Descending Miami Center
04:41PM 26.6203 -82.1192 131° Southeast 273 314 6,400 -1,920 Descending Miami Center
04:42PM 26.5808 -82.0547 124° Southeast 263 303 4,800 -1,680 Descending Miami Center
04:43PM 26.5436 -81.9881 122° Southeast 263 303 3,100 -1,740 Descending Miami Center